sensor_id;sensor_type;location;lat;lon;timestamp;temperature;humidity
80367;DHT22;70058;42.660;23.366;2023-05-21T00:01:02;16.50;67.20
80367;DHT22;70058;42.660;23.366;2023-05-21T00:03:31;16.60;66.70
80367;DHT22;70058;42.660;23.366;2023-05-21T00:05:57;16.50;66.50
80367;DHT22;70058;42.660;23.366;2023-05-21T00:08:23;16.60;66.80
80367;DHT22;70058;42.660;23.366;2023-05-21T00:10:48;16.60;66.80
80367;DHT22;70058;42.660;23.366;2023-05-21T00:13:14;16.60;66.60
80367;DHT22;70058;42.660;23.366;2023-05-21T00:15:40;16.50;66.70
80367;DHT22;70058;42.660;23.366;2023-05-21T00:18:06;16.50;66.90
80367;DHT22;70058;42.660;23.366;2023-05-21T00:20:31;16.60;66.50
80367;DHT22;70058;42.660;23.366;2023-05-21T00:23:00;16.50;66.30
80367;DHT22;70058;42.660;23.366;2023-05-21T00:25:30;16.40;66.00
80367;DHT22;70058;42.660;23.366;2023-05-21T00:27:55;16.40;66.00
80367;DHT22;70058;42.660;23.366;2023-05-21T00:30:21;16.20;65.80
80367;DHT22;70058;42.660;23.366;2023-05-21T00:32:47;16.20;65.80
80367;DHT22;70058;42.660;23.366;2023-05-21T00:35:13;16.20;65.90
80367;DHT22;70058;42.660;23.366;2023-05-21T00:37:38;16.10;66.00
80367;DHT22;70058;42.660;23.366;2023-05-21T00:40:05;16.10;66.30
80367;DHT22;70058;42.660;23.366;2023-05-21T00:42:33;16.00;66.50
80367;DHT22;70058;42.660;23.366;2023-05-21T00:45:05;15.90;66.70
80367;DHT22;70058;42.660;23.366;2023-05-21T00:47:31;15.90;67.00
80367;DHT22;70058;42.660;23.366;2023-05-21T00:49:57;15.80;67.20
80367;DHT22;70058;42.660;23.366;2023-05-21T00:52:23;15.80;67.50
80367;DHT22;70058;42.660;23.366;2023-05-21T00:54:51;15.80;67.60
80367;DHT22;70058;42.660;23.366;2023-05-21T00:57:21;15.70;67.80
80367;DHT22;70058;42.660;23.366;2023-05-21T00:59:51;15.70;67.50
80367;DHT22;70058;42.660;23.366;2023-05-21T01:02:17;15.70;67.50
80367;DHT22;70058;42.660;23.366;2023-05-21T01:04:44;15.70;67.40
80367;DHT22;70058;42.660;23.366;2023-05-21T01:07:10;15.60;67.40
80367;DHT22;70058;42.660;23.366;2023-05-21T01:09:37;15.60;67.60
80367;DHT22;70058;42.660;23.366;2023-05-21T01:12:04;15.60;67.60
80367;DHT22;70058;42.660;23.366;2023-05-21T01:14:30;15.60;67.40
80367;DHT22;70058;42.660;23.366;2023-05-21T01:16:57;15.70;67.20
80367;DHT22;70058;42.660;23.366;2023-05-21T01:19:26;15.70;67.00
80367;DHT22;70058;42.660;23.366;2023-05-21T01:21:56;15.70;67.00
80367;DHT22;70058;42.660;23.366;2023-05-21T01:24:24;15.70;67.00
80367;DHT22;70058;42.660;23.366;2023-05-21T01:26:50;15.70;66.80
80367;DHT22;70058;42.660;23.366;2023-05-21T01:29:17;15.70;66.50
80367;DHT22;70058;42.660;23.366;2023-05-21T01:34:41;15.80;66.30
80367;DHT22;70058;42.660;23.366;2023-05-21T01:37:21;15.70;66.30
80367;DHT22;70058;42.660;23.366;2023-05-21T01:39:52;15.70;66.30
80367;DHT22;70058;42.660;23.366;2023-05-21T01:42:21;15.70;66.30
80367;DHT22;70058;42.660;23.366;2023-05-21T01:44:50;15.70;66.10
80367;DHT22;70058;42.660;23.366;2023-05-21T01:47:17;15.70;66.10
80367;DHT22;70058;42.660;23.366;2023-05-21T01:49:43;15.80;66.00
80367;DHT22;70058;42.660;23.366;2023-05-21T01:52:09;15.70;65.70
80367;DHT22;70058;42.660;23.366;2023-05-21T01:54:34;15.70;65.50
80367;DHT22;70058;42.660;23.366;2023-05-21T01:57:00;15.70;65.50
80367;DHT22;70058;42.660;23.366;2023-05-21T01:59:26;15.70;65.60
80367;DHT22;70058;42.660;23.366;2023-05-21T02:01:52;15.70;65.50
80367;DHT22;70058;42.660;23.366;2023-05-21T02:04:17;15.70;65.60
80367;DHT22;70058;42.660;23.366;2023-05-21T02:06:43;15.70;65.30
80367;DHT22;70058;42.660;23.366;2023-05-21T02:09:09;15.70;65.40
80367;DHT22;70058;42.660;23.366;2023-05-21T02:11:34;15.70;65.40
80367;DHT22;70058;42.660;23.366;2023-05-21T02:14:00;15.60;65.50
80367;DHT22;70058;42.660;23.366;2023-05-21T02:16:25;15.60;65.50
80367;DHT22;70058;42.660;23.366;2023-05-21T02:18:51;15.50;65.40
80367;DHT22;70058;42.660;23.366;2023-05-21T02:21:21;15.50;65.50
80367;DHT22;70058;42.660;23.366;2023-05-21T02:23:47;15.40;65.60
80367;DHT22;70058;42.660;23.366;2023-05-21T02:26:12;15.40;65.70
80367;DHT22;70058;42.660;23.366;2023-05-21T02:28:38;15.30;66.00
80367;DHT22;70058;42.660;23.366;2023-05-21T02:31:04;15.20;66.30
80367;DHT22;70058;42.660;23.366;2023-05-21T02:33:30;15.10;66.60
80367;DHT22;70058;42.660;23.366;2023-05-21T02:35:56;15.00;66.70
80367;DHT22;70058;42.660;23.366;2023-05-21T02:38:22;15.00;66.90
80367;DHT22;70058;42.660;23.366;2023-05-21T02:40:50;14.90;67.10
80367;DHT22;70058;42.660;23.366;2023-05-21T02:43:16;15.00;67.20
80367;DHT22;70058;42.660;23.366;2023-05-21T02:45:42;14.90;67.40
80367;DHT22;70058;42.660;23.366;2023-05-21T02:48:07;14.90;67.70
80367;DHT22;70058;42.660;23.366;2023-05-21T02:50:33;14.80;67.70
80367;DHT22;70058;42.660;23.366;2023-05-21T02:52:58;14.80;67.80
80367;DHT22;70058;42.660;23.366;2023-05-21T02:55:24;14.80;68.20
80367;DHT22;70058;42.660;23.366;2023-05-21T02:57:50;14.80;68.20
80367;DHT22;70058;42.660;23.366;2023-05-21T03:00:16;14.80;68.50
80367;DHT22;70058;42.660;23.366;2023-05-21T03:02:42;14.80;68.40
80367;DHT22;70058;42.660;23.366;2023-05-21T03:05:07;14.80;68.40
80367;DHT22;70058;42.660;23.366;2023-05-21T03:07:33;14.90;68.30
80367;DHT22;70058;42.660;23.366;2023-05-21T03:09:59;14.80;68.20
80367;DHT22;70058;42.660;23.366;2023-05-21T03:12:24;14.90;68.40
80367;DHT22;70058;42.660;23.366;2023-05-21T03:14:50;14.90;68.20
80367;DHT22;70058;42.660;23.366;2023-05-21T03:17:16;14.80;68.30
80367;DHT22;70058;42.660;23.366;2023-05-21T03:19:43;14.80;68.40
80367;DHT22;70058;42.660;23.366;2023-05-21T03:22:09;14.90;68.30
80367;DHT22;70058;42.660;23.366;2023-05-21T03:24:39;14.90;68.20
80367;DHT22;70058;42.660;23.366;2023-05-21T03:27:06;15.00;67.80
80367;DHT22;70058;42.660;23.366;2023-05-21T03:29:32;15.00;67.80
80367;DHT22;70058;42.660;23.366;2023-05-21T03:31:59;15.10;67.60
80367;DHT22;70058;42.660;23.366;2023-05-21T03:34:24;15.20;67.30
80367;DHT22;70058;42.660;23.366;2023-05-21T03:36:50;15.30;67.10
80367;DHT22;70058;42.660;23.366;2023-05-21T03:39:15;15.30;67.00
80367;DHT22;70058;42.660;23.366;2023-05-21T03:41:41;15.30;66.80
80367;DHT22;70058;42.660;23.366;2023-05-21T03:44:07;15.40;66.50
80367;DHT22;70058;42.660;23.366;2023-05-21T03:46:33;15.40;66.70
80367;DHT22;70058;42.660;23.366;2023-05-21T03:48:59;15.50;66.50
80367;DHT22;70058;42.660;23.366;2023-05-21T03:51:25;15.50;66.40
80367;DHT22;70058;42.660;23.366;2023-05-21T03:53:51;15.60;66.50
80367;DHT22;70058;42.660;23.366;2023-05-21T03:56:17;15.60;65.90
80367;DHT22;70058;42.660;23.366;2023-05-21T03:58:43;15.70;66.00
80367;DHT22;70058;42.660;23.366;2023-05-21T04:01:09;15.80;65.60
80367;DHT22;70058;42.660;23.366;2023-05-21T04:03:35;15.80;65.50
80367;DHT22;70058;42.660;23.366;2023-05-21T04:06:02;15.80;65.10
80367;DHT22;70058;42.660;23.366;2023-05-21T04:08:28;15.90;65.30
80367;DHT22;70058;42.660;23.366;2023-05-21T04:10:53;16.00;65.00
80367;DHT22;70058;42.660;23.366;2023-05-21T04:13:19;16.10;64.90
80367;DHT22;70058;42.660;23.366;2023-05-21T04:15:45;16.10;64.60
80367;DHT22;70058;42.660;23.366;2023-05-21T04:18:12;16.30;64.50
80367;DHT22;70058;42.660;23.366;2023-05-21T04:20:41;16.30;64.00
80367;DHT22;70058;42.660;23.366;2023-05-21T04:23:07;16.50;63.60
80367;DHT22;70058;42.660;23.366;2023-05-21T04:25:33;16.60;63.20
80367;DHT22;70058;42.660;23.366;2023-05-21T04:27:59;16.60;62.90
80367;DHT22;70058;42.660;23.366;2023-05-21T04:30:25;16.70;62.70
80367;DHT22;70058;42.660;23.366;2023-05-21T04:32:50;16.80;62.80
80367;DHT22;70058;42.660;23.366;2023-05-21T04:35:17;16.70;62.70
80367;DHT22;70058;42.660;23.366;2023-05-21T04:37:43;16.80;62.70
80367;DHT22;70058;42.660;23.366;2023-05-21T04:40:11;16.90;62.50
80367;DHT22;70058;42.660;23.366;2023-05-21T04:42:45;17.00;62.30
80367;DHT22;70058;42.660;23.366;2023-05-21T04:45:11;17.10;62.00
80367;DHT22;70058;42.660;23.366;2023-05-21T04:47:37;17.20;61.90
80367;DHT22;70058;42.660;23.366;2023-05-21T04:50:03;17.30;61.90
80367;DHT22;70058;42.660;23.366;2023-05-21T04:52:29;17.50;61.60
80367;DHT22;70058;42.660;23.366;2023-05-21T04:54:55;17.60;61.20
80367;DHT22;70058;42.660;23.366;2023-05-21T04:57:21;17.70;60.90
80367;DHT22;70058;42.660;23.366;2023-05-21T04:59:49;17.80;60.60
80367;DHT22;70058;42.660;23.366;2023-05-21T05:02:14;17.90;60.30
80367;DHT22;70058;42.660;23.366;2023-05-21T05:04:40;18.00;59.90
80367;DHT22;70058;42.660;23.366;2023-05-21T05:07:08;18.20;59.80
80367;DHT22;70058;42.660;23.366;2023-05-21T05:09:34;18.30;59.20
80367;DHT22;70058;42.660;23.366;2023-05-21T05:11:59;18.50;58.10
80367;DHT22;70058;42.660;23.366;2023-05-21T05:14:26;18.70;57.30
80367;DHT22;70058;42.660;23.366;2023-05-21T05:16:51;19.10;56.80
80367;DHT22;70058;42.660;23.366;2023-05-21T05:19:18;19.40;55.90
80367;DHT22;70058;42.660;23.366;2023-05-21T05:21:44;19.80;55.00
80367;DHT22;70058;42.660;23.366;2023-05-21T05:24:10;20.20;53.40
80367;DHT22;70058;42.660;23.366;2023-05-21T05:26:35;20.50;50.90
80367;DHT22;70058;42.660;23.366;2023-05-21T05:29:01;20.60;51.50
80367;DHT22;70058;42.660;23.366;2023-05-21T05:31:26;20.80;49.70
80367;DHT22;70058;42.660;23.366;2023-05-21T05:33:52;20.80;49.00
80367;DHT22;70058;42.660;23.366;2023-05-21T05:36:18;20.90;49.20
80367;DHT22;70058;42.660;23.366;2023-05-21T05:38:43;21.00;49.20
80367;DHT22;70058;42.660;23.366;2023-05-21T05:41:09;21.20;48.60
80367;DHT22;70058;42.660;23.366;2023-05-21T05:43:38;21.40;47.70
80367;DHT22;70058;42.660;23.366;2023-05-21T05:46:03;22.00;47.30
80367;DHT22;70058;42.660;23.366;2023-05-21T05:48:29;22.50;46.00
80367;DHT22;70058;42.660;23.366;2023-05-21T05:50:55;22.80;45.20
80367;DHT22;70058;42.660;23.366;2023-05-21T05:53:21;22.80;44.90
80367;DHT22;70058;42.660;23.366;2023-05-21T05:55:47;22.80;45.30
80367;DHT22;70058;42.660;23.366;2023-05-21T05:58:13;22.80;45.50
80367;DHT22;70058;42.660;23.366;2023-05-21T06:00:38;23.00;45.90
80367;DHT22;70058;42.660;23.366;2023-05-21T06:03:04;23.70;44.20
80367;DHT22;70058;42.660;23.366;2023-05-21T06:05:30;24.50;43.00
80367;DHT22;70058;42.660;23.366;2023-05-21T06:07:56;26.00;38.60
80367;DHT22;70058;42.660;23.366;2023-05-21T06:10:21;27.50;35.40
80367;DHT22;70058;42.660;23.366;2023-05-21T06:12:47;28.50;34.70
80367;DHT22;70058;42.660;23.366;2023-05-21T06:15:13;30.80;31.80
80367;DHT22;70058;42.660;23.366;2023-05-21T06:17:43;32.60;29.70
80367;DHT22;70058;42.660;23.366;2023-05-21T06:20:10;33.80;27.80
80367;DHT22;70058;42.660;23.366;2023-05-21T06:22:36;32.90;25.40
80367;DHT22;70058;42.660;23.366;2023-05-21T06:25:03;34.30;26.60
80367;DHT22;70058;42.660;23.366;2023-05-21T06:27:30;34.20;24.60
80367;DHT22;70058;42.660;23.366;2023-05-21T06:29:56;32.40;25.40
80367;DHT22;70058;42.660;23.366;2023-05-21T06:32:23;32.20;27.30
80367;DHT22;70058;42.660;23.366;2023-05-21T06:34:48;31.60;27.90
80367;DHT22;70058;42.660;23.366;2023-05-21T06:37:18;31.00;27.80
80367;DHT22;70058;42.660;23.366;2023-05-21T06:39:44;30.30;28.60
80367;DHT22;70058;42.660;23.366;2023-05-21T06:42:10;30.10;28.80
80367;DHT22;70058;42.660;23.366;2023-05-21T06:44:35;28.60;30.00
80367;DHT22;70058;42.660;23.366;2023-05-21T06:47:01;28.30;31.10
80367;DHT22;70058;42.660;23.366;2023-05-21T06:49:27;25.90;32.00
80367;DHT22;70058;42.660;23.366;2023-05-21T06:51:53;26.50;32.90
80367;DHT22;70058;42.660;23.366;2023-05-21T06:54:18;25.90;32.00
80367;DHT22;70058;42.660;23.366;2023-05-21T06:56:44;26.40;33.00
80367;DHT22;70058;42.660;23.366;2023-05-21T06:59:10;27.00;32.80
80367;DHT22;70058;42.660;23.366;2023-05-21T07:01:35;26.50;30.70
80367;DHT22;70058;42.660;23.366;2023-05-21T07:04:01;28.80;29.90
80367;DHT22;70058;42.660;23.366;2023-05-21T07:06:27;29.90;28.80
80367;DHT22;70058;42.660;23.366;2023-05-21T07:08:52;30.50;28.30
80367;DHT22;70058;42.660;23.366;2023-05-21T07:11:18;32.50;26.70
80367;DHT22;70058;42.660;23.366;2023-05-21T07:13:44;33.30;25.80
80367;DHT22;70058;42.660;23.366;2023-05-21T07:16:09;32.50;24.80
80367;DHT22;70058;42.660;23.366;2023-05-21T07:18:35;30.00;27.10
80367;DHT22;70058;42.660;23.366;2023-05-21T07:21:01;30.20;28.20
80367;DHT22;70058;42.660;23.366;2023-05-21T07:23:26;30.30;28.30
80367;DHT22;70058;42.660;23.366;2023-05-21T07:25:52;30.30;28.00
80367;DHT22;70058;42.660;23.366;2023-05-21T07:28:18;30.40;27.90
80367;DHT22;70058;42.660;23.366;2023-05-21T07:30:44;30.60;27.20
80367;DHT22;70058;42.660;23.366;2023-05-21T07:33:10;28.00;30.20
80367;DHT22;70058;42.660;23.366;2023-05-21T07:35:37;29.00;30.00
80367;DHT22;70058;42.660;23.366;2023-05-21T07:38:02;30.00;28.60
80367;DHT22;70058;42.660;23.366;2023-05-21T07:40:28;31.90;26.90
80367;DHT22;70058;42.660;23.366;2023-05-21T07:42:53;33.20;25.20
80367;DHT22;70058;42.660;23.366;2023-05-21T07:45:19;29.50;26.10
80367;DHT22;70058;42.660;23.366;2023-05-21T07:47:45;31.60;26.90
80367;DHT22;70058;42.660;23.366;2023-05-21T07:50:11;34.60;24.90
80367;DHT22;70058;42.660;23.366;2023-05-21T07:52:37;36.90;23.40
80367;DHT22;70058;42.660;23.366;2023-05-21T07:55:05;38.30;21.80
80367;DHT22;70058;42.660;23.366;2023-05-21T07:57:31;36.80;22.80
80367;DHT22;70058;42.660;23.366;2023-05-21T07:59:57;37.30;22.30
80367;DHT22;70058;42.660;23.366;2023-05-21T08:02:22;37.90;22.10
80367;DHT22;70058;42.660;23.366;2023-05-21T08:04:48;38.00;21.70
80367;DHT22;70058;42.660;23.366;2023-05-21T08:07:14;35.60;22.70
80367;DHT22;70058;42.660;23.366;2023-05-21T08:09:41;36.00;23.20
80367;DHT22;70058;42.660;23.366;2023-05-21T08:12:07;31.60;22.40
80367;DHT22;70058;42.660;23.366;2023-05-21T08:14:32;31.80;24.20
80367;DHT22;70058;42.660;23.366;2023-05-21T08:16:58;28.50;25.00
80367;DHT22;70058;42.660;23.366;2023-05-21T08:19:24;26.50;26.70
80367;DHT22;70058;42.660;23.366;2023-05-21T08:21:49;26.70;27.00
80367;DHT22;70058;42.660;23.366;2023-05-21T08:24:15;27.50;27.10
80367;DHT22;70058;42.660;23.366;2023-05-21T08:26:41;26.00;27.30
80367;DHT22;70058;42.660;23.366;2023-05-21T08:29:08;27.50;26.40
80367;DHT22;70058;42.660;23.366;2023-05-21T08:31:33;28.40;25.70
80367;DHT22;70058;42.660;23.366;2023-05-21T08:33:59;31.50;23.40
80367;DHT22;70058;42.660;23.366;2023-05-21T08:36:25;30.10;23.00
80367;DHT22;70058;42.660;23.366;2023-05-21T08:38:50;32.50;22.30
80367;DHT22;70058;42.660;23.366;2023-05-21T08:41:17;33.50;21.50
80367;DHT22;70058;42.660;23.366;2023-05-21T08:43:47;33.20;21.00
80367;DHT22;70058;42.660;23.366;2023-05-21T08:46:12;29.80;22.90
80367;DHT22;70058;42.660;23.366;2023-05-21T08:48:38;28.70;23.20
80367;DHT22;70058;42.660;23.366;2023-05-21T08:51:05;29.40;23.80
80367;DHT22;70058;42.660;23.366;2023-05-21T08:53:32;31.80;22.30
80367;DHT22;70058;42.660;23.366;2023-05-21T08:55:59;30.90;22.10
80367;DHT22;70058;42.660;23.366;2023-05-21T08:58:25;31.00;22.40
80367;DHT22;70058;42.660;23.366;2023-05-21T09:00:52;32.40;22.60
80367;DHT22;70058;42.660;23.366;2023-05-21T09:03:18;33.60;20.90
80367;DHT22;70058;42.660;23.366;2023-05-21T09:05:46;35.90;19.90
80367;DHT22;70058;42.660;23.366;2023-05-21T09:08:18;32.20;20.90
80367;DHT22;70058;42.660;23.366;2023-05-21T09:10:48;32.20;22.10
80367;DHT22;70058;42.660;23.366;2023-05-21T09:13:18;33.70;21.20
80367;DHT22;70058;42.660;23.366;2023-05-21T09:15:45;33.40;21.50
80367;DHT22;70058;42.660;23.366;2023-05-21T09:18:11;32.00;21.90
80367;DHT22;70058;42.660;23.366;2023-05-21T09:20:37;34.00;21.30
80367;DHT22;70058;42.660;23.366;2023-05-21T09:23:05;33.70;21.10
80367;DHT22;70058;42.660;23.366;2023-05-21T09:25:44;34.30;21.40
80367;DHT22;70058;42.660;23.366;2023-05-21T09:28:12;35.70;20.30
80367;DHT22;70058;42.660;23.366;2023-05-21T09:30:45;35.20;19.50
80367;DHT22;70058;42.660;23.366;2023-05-21T09:33:11;29.00;23.60
80367;DHT22;70058;42.660;23.366;2023-05-21T09:35:43;30.40;24.30
80367;DHT22;70058;42.660;23.366;2023-05-21T09:38:09;29.00;24.50
80367;DHT22;70058;42.660;23.366;2023-05-21T09:40:35;27.20;25.00
80367;DHT22;70058;42.660;23.366;2023-05-21T09:43:01;26.10;27.50
80367;DHT22;70058;42.660;23.366;2023-05-21T09:45:27;26.00;27.10
80367;DHT22;70058;42.660;23.366;2023-05-21T09:47:54;26.80;25.40
80367;DHT22;70058;42.660;23.366;2023-05-21T09:50:22;25.70;26.10
80367;DHT22;70058;42.660;23.366;2023-05-21T09:52:48;25.90;25.80
80367;DHT22;70058;42.660;23.366;2023-05-21T09:55:15;26.20;26.50
80367;DHT22;70058;42.660;23.366;2023-05-21T09:57:46;27.60;24.90
80367;DHT22;70058;42.660;23.366;2023-05-21T10:00:26;28.90;24.50
80367;DHT22;70058;42.660;23.366;2023-05-21T10:03:04;28.80;24.10
80367;DHT22;70058;42.660;23.366;2023-05-21T10:05:34;28.90;25.30
80367;DHT22;70058;42.660;23.366;2023-05-21T10:08:01;29.80;23.50
80367;DHT22;70058;42.660;23.366;2023-05-21T10:10:31;28.90;24.60
80367;DHT22;70058;42.660;23.366;2023-05-21T10:13:08;26.70;24.90
80367;DHT22;70058;42.660;23.366;2023-05-21T10:15:43;26.90;26.60
80367;DHT22;70058;42.660;23.366;2023-05-21T10:18:10;26.30;26.00
80367;DHT22;70058;42.660;23.366;2023-05-21T10:20:37;26.50;27.00
80367;DHT22;70058;42.660;23.366;2023-05-21T10:23:04;27.60;26.10
80367;DHT22;70058;42.660;23.366;2023-05-21T10:25:30;28.10;24.80
80367;DHT22;70058;42.660;23.366;2023-05-21T10:27:56;27.70;25.20
80367;DHT22;70058;42.660;23.366;2023-05-21T10:30:23;27.80;25.20
80367;DHT22;70058;42.660;23.366;2023-05-21T10:32:48;27.60;25.90
80367;DHT22;70058;42.660;23.366;2023-05-21T10:35:15;26.40;26.00
80367;DHT22;70058;42.660;23.366;2023-05-21T10:37:43;25.50;26.90
80367;DHT22;70058;42.660;23.366;2023-05-21T10:40:10;24.50;28.60
80367;DHT22;70058;42.660;23.366;2023-05-21T10:51:18;26.00;27.30
80367;DHT22;70058;42.660;23.366;2023-05-21T10:59:42;24.10;29.70
80367;DHT22;70058;42.660;23.366;2023-05-21T11:02:12;24.40;29.20
80367;DHT22;70058;42.660;23.366;2023-05-21T11:04:39;25.00;28.70
80367;DHT22;70058;42.660;23.366;2023-05-21T11:07:07;23.60;30.00
80367;DHT22;70058;42.660;23.366;2023-05-21T11:09:33;23.30;30.50
80367;DHT22;70058;42.660;23.366;2023-05-21T11:11:59;22.80;31.80
80367;DHT22;70058;42.660;23.366;2023-05-21T11:14:36;21.80;34.00
80367;DHT22;70058;42.660;23.366;2023-05-21T11:17:12;22.00;34.00
80367;DHT22;70058;42.660;23.366;2023-05-21T11:19:43;22.20;33.00
80367;DHT22;70058;42.660;23.366;2023-05-21T11:22:26;22.20;33.50
80367;DHT22;70058;42.660;23.366;2023-05-21T11:24:53;22.90;32.80
80367;DHT22;70058;42.660;23.366;2023-05-21T11:27:38;22.80;32.20
80367;DHT22;70058;42.660;23.366;2023-05-21T11:30:09;23.60;32.10
80367;DHT22;70058;42.660;23.366;2023-05-21T11:32:43;23.90;31.80
80367;DHT22;70058;42.660;23.366;2023-05-21T11:35:26;24.10;31.10
80367;DHT22;70058;42.660;23.366;2023-05-21T11:37:53;24.40;30.80
80367;DHT22;70058;42.660;23.366;2023-05-21T11:40:23;24.50;31.10
80367;DHT22;70058;42.660;23.366;2023-05-21T11:42:52;24.70;31.40
80367;DHT22;70058;42.660;23.366;2023-05-21T11:45:19;23.70;31.00
80367;DHT22;70058;42.660;23.366;2023-05-21T11:47:49;23.60;31.50
80367;DHT22;70058;42.660;23.366;2023-05-21T11:50:15;23.70;31.90
80367;DHT22;70058;42.660;23.366;2023-05-21T11:52:42;24.10;31.40
80367;DHT22;70058;42.660;23.366;2023-05-21T11:55:09;23.20;31.90
80367;DHT22;70058;42.660;23.366;2023-05-21T11:57:36;23.30;32.90
80367;DHT22;70058;42.660;23.366;2023-05-21T12:00:02;23.70;33.30
80367;DHT22;70058;42.660;23.366;2023-05-21T12:02:40;23.70;32.10
80367;DHT22;70058;42.660;23.366;2023-05-21T12:05:08;22.80;32.70
80367;DHT22;70058;42.660;23.366;2023-05-21T12:07:34;23.00;33.70
80367;DHT22;70058;42.660;23.366;2023-05-21T12:10:00;23.10;33.30
80367;DHT22;70058;42.660;23.366;2023-05-21T12:12:26;22.80;36.30
80367;DHT22;70058;42.660;23.366;2023-05-21T12:14:53;22.70;35.70
80367;DHT22;70058;42.660;23.366;2023-05-21T12:17:23;22.50;35.20
80367;DHT22;70058;42.660;23.366;2023-05-21T12:19:52;21.70;36.50
80367;DHT22;70058;42.660;23.366;2023-05-21T12:22:18;21.60;37.90
80367;DHT22;70058;42.660;23.366;2023-05-21T12:24:44;21.80;37.60
80367;DHT22;70058;42.660;23.366;2023-05-21T12:27:11;21.90;37.00
80367;DHT22;70058;42.660;23.366;2023-05-21T12:29:41;21.60;37.90
80367;DHT22;70058;42.660;23.366;2023-05-21T12:32:09;21.70;38.30
80367;DHT22;70058;42.660;23.366;2023-05-21T12:34:50;22.20;37.60
80367;DHT22;70058;42.660;23.366;2023-05-21T12:37:25;22.30;37.20
80367;DHT22;70058;42.660;23.366;2023-05-21T12:39:55;22.30;36.90
80367;DHT22;70058;42.660;23.366;2023-05-21T12:42:30;21.90;36.40
80367;DHT22;70058;42.660;23.366;2023-05-21T12:44:59;22.10;36.50
80367;DHT22;70058;42.660;23.366;2023-05-21T12:47:26;22.30;36.60
80367;DHT22;70058;42.660;23.366;2023-05-21T12:49:59;22.70;35.90
80367;DHT22;70058;42.660;23.366;2023-05-21T12:52:26;22.70;35.10
80367;DHT22;70058;42.660;23.366;2023-05-21T12:54:53;22.50;34.80
80367;DHT22;70058;42.660;23.366;2023-05-21T12:57:23;22.30;35.80
80367;DHT22;70058;42.660;23.366;2023-05-21T12:59:54;22.00;37.00
80367;DHT22;70058;42.660;23.366;2023-05-21T13:02:43;22.30;37.50
80367;DHT22;70058;42.660;23.366;2023-05-21T13:05:15;22.40;37.30
80367;DHT22;70058;42.660;23.366;2023-05-21T13:07:42;22.60;38.20
80367;DHT22;70058;42.660;23.366;2023-05-21T13:10:11;22.00;39.50
80367;DHT22;70058;42.660;23.366;2023-05-21T13:12:36;22.00;44.20
80367;DHT22;70058;42.660;23.366;2023-05-21T13:15:03;22.10;43.70
80367;DHT22;70058;42.660;23.366;2023-05-21T13:17:30;22.30;43.00
80367;DHT22;70058;42.660;23.366;2023-05-21T13:20:05;21.80;42.10
80367;DHT22;70058;42.660;23.366;2023-05-21T13:22:37;21.90;41.70
80367;DHT22;70058;42.660;23.366;2023-05-21T13:25:11;22.00;40.40
80367;DHT22;70058;42.660;23.366;2023-05-21T13:27:40;22.10;40.60
80367;DHT22;70058;42.660;23.366;2023-05-21T13:30:06;22.10;40.70
80367;DHT22;70058;42.660;23.366;2023-05-21T13:32:33;22.30;40.70
80367;DHT22;70058;42.660;23.366;2023-05-21T13:34:58;22.60;39.10
80367;DHT22;70058;42.660;23.366;2023-05-21T13:37:24;22.80;39.70
80367;DHT22;70058;42.660;23.366;2023-05-21T13:39:50;23.10;38.20
80367;DHT22;70058;42.660;23.366;2023-05-21T13:42:16;23.50;37.70
80367;DHT22;70058;42.660;23.366;2023-05-21T13:44:41;23.70;36.80
80367;DHT22;70058;42.660;23.366;2023-05-21T13:47:07;23.70;35.50
80367;DHT22;70058;42.660;23.366;2023-05-21T13:49:35;23.60;36.50
80367;DHT22;70058;42.660;23.366;2023-05-21T13:52:01;23.90;35.80
80367;DHT22;70058;42.660;23.366;2023-05-21T13:54:27;24.20;35.20
80367;DHT22;70058;42.660;23.366;2023-05-21T13:56:53;24.30;34.80
80367;DHT22;70058;42.660;23.366;2023-05-21T13:59:19;24.20;35.00
80367;DHT22;70058;42.660;23.366;2023-05-21T14:01:45;24.20;34.40
80367;DHT22;70058;42.660;23.366;2023-05-21T14:04:12;24.10;34.80
80367;DHT22;70058;42.660;23.366;2023-05-21T14:06:38;23.90;35.30
80367;DHT22;70058;42.660;23.366;2023-05-21T14:09:06;23.60;35.00
80367;DHT22;70058;42.660;23.366;2023-05-21T14:11:31;23.00;35.10
80367;DHT22;70058;42.660;23.366;2023-05-21T14:13:58;22.60;36.70
80367;DHT22;70058;42.660;23.366;2023-05-21T14:16:24;22.40;39.70
80367;DHT22;70058;42.660;23.366;2023-05-21T14:18:52;22.50;39.60
80367;DHT22;70058;42.660;23.366;2023-05-21T14:21:18;22.70;38.10
80367;DHT22;70058;42.660;23.366;2023-05-21T14:23:44;22.80;40.40
80367;DHT22;70058;42.660;23.366;2023-05-21T14:26:09;22.90;45.00
80367;DHT22;70058;42.660;23.366;2023-05-21T14:28:35;22.90;42.40
80367;DHT22;70058;42.660;23.366;2023-05-21T14:31:01;22.90;40.30
80367;DHT22;70058;42.660;23.366;2023-05-21T14:33:27;22.90;39.20
80367;DHT22;70058;42.660;23.366;2023-05-21T14:35:52;22.90;38.30
80367;DHT22;70058;42.660;23.366;2023-05-21T14:38:18;23.00;38.30
80367;DHT22;70058;42.660;23.366;2023-05-21T14:40:43;23.20;40.10
80367;DHT22;70058;42.660;23.366;2023-05-21T14:43:09;23.30;41.10
80367;DHT22;70058;42.660;23.366;2023-05-21T14:45:35;23.40;41.80
80367;DHT22;70058;42.660;23.366;2023-05-21T14:48:01;23.40;41.90
80367;DHT22;70058;42.660;23.366;2023-05-21T14:50:35;23.30;40.80
80367;DHT22;70058;42.660;23.366;2023-05-21T14:53:08;23.00;38.60
80367;DHT22;70058;42.660;23.366;2023-05-21T14:55:34;22.80;40.70
80367;DHT22;70058;42.660;23.366;2023-05-21T14:58:01;22.80;41.90
80367;DHT22;70058;42.660;23.366;2023-05-21T15:00:31;22.80;41.20
80367;DHT22;70058;42.660;23.366;2023-05-21T15:02:58;22.70;42.40
80367;DHT22;70058;42.660;23.366;2023-05-21T15:05:27;22.70;40.90
80367;DHT22;70058;42.660;23.366;2023-05-21T15:07:54;22.60;39.90
80367;DHT22;70058;42.660;23.366;2023-05-21T15:10:21;22.30;40.30
80367;DHT22;70058;42.660;23.366;2023-05-21T15:12:47;22.40;41.30
80367;DHT22;70058;42.660;23.366;2023-05-21T15:15:13;22.40;40.90
80367;DHT22;70058;42.660;23.366;2023-05-21T15:17:39;22.40;40.20
80367;DHT22;70058;42.660;23.366;2023-05-21T15:20:05;22.30;40.60
80367;DHT22;70058;42.660;23.366;2023-05-21T15:22:35;22.30;41.20
80367;DHT22;70058;42.660;23.366;2023-05-21T15:25:01;22.10;40.50
80367;DHT22;70058;42.660;23.366;2023-05-21T15:27:28;22.00;40.20
80367;DHT22;70058;42.660;23.366;2023-05-21T15:29:53;21.40;40.90
80367;DHT22;70058;42.660;23.366;2023-05-21T15:32:19;20.90;42.20